Time;durP1;ratioP1;P1;durP2;ratioP2;P2;SDS_P1;SDS_P2;PMS_P1;PMS_P2;Temp;Humidity;BMP_temperature;BMP_pressure;BME280_temperature;BME280_humidity;BME280_pressure;Samples;Min_cycle;Max_cycle;Signal;HPM_P1;HPM_P2
2021/06/03 00:01:25;;;;;;;7.13;5.07;;;19.70;62.40;;;;;;5056620;28;20193;-83
2021/06/03 00:03:51;;;;;;;7.67;4.70;;;19.70;62.30;;;;;;5055912;28;20169;-83
2021/06/03 00:06:17;;;;;;;12.43;5.70;;;19.70;62.40;;;;;;5056092;28;20796;-83
2021/06/03 00:08:45;;;;;;;15.55;5.13;;;19.80;62.80;;;;;;5056644;28;20415;-84
2021/06/03 00:11:13;;;;;;;13.25;5.93;;;19.70;63.50;;;;;;5056898;28;20254;-83
2021/06/03 00:13:41;;;;;;;7.03;4.28;;;19.70;63.80;;;;;;5056467;28;20699;-84
2021/06/03 00:16:13;;;;;;;7.00;5.20;;;19.70;64.60;;;;;;5056534;28;20528;-83
2021/06/03 00:18:40;;;;;;;7.05;5.03;;;19.60;64.40;;;;;;5056518;28;20185;-83
2021/06/03 00:21:07;;;;;;;9.73;5.63;;;19.60;64.10;;;;;;5055794;28;20284;-84
2021/06/03 00:23:33;;;;;;;8.73;4.97;;;19.70;64.20;;;;;;5055032;28;20173;-84
2021/06/03 00:25:58;;;;;;;9.70;5.10;;;19.60;64.60;;;;;;5054982;28;20170;-84
2021/06/03 00:28:24;;;;;;;9.97;6.43;;;19.60;64.90;;;;;;5054587;28;20408;-84
2021/06/03 00:30:50;;;;;;;8.33;4.70;;;19.50;65.30;;;;;;5054866;28;21033;-83
2021/06/03 00:33:16;;;;;;;7.57;5.47;;;19.50;65.50;;;;;;5054437;28;20418;-84
2021/06/03 00:35:42;;;;;;;12.13;5.60;;;19.30;65.80;;;;;;5054797;28;20169;-83
2021/06/03 00:38:08;;;;;;;8.00;4.90;;;19.30;65.30;;;;;;5055494;28;20442;-80
2021/06/03 00:40:34;;;;;;;13.47;5.50;;;19.20;65.50;;;;;;5059178;28;20245;-80
2021/06/03 00:43:00;;;;;;;9.82;5.72;;;19.20;65.80;;;;;;5059274;28;20443;-80
2021/06/03 00:45:35;;;;;;;11.03;5.87;;;19.20;65.80;;;;;;5058848;28;20173;-82
2021/06/03 00:48:01;;;;;;;11.60;6.30;;;19.20;65.80;;;;;;5059082;28;20414;-82
2021/06/03 00:50:30;;;;;;;10.93;4.90;;;19.10;66.30;;;;;;5058057;28;20710;-81
2021/06/03 00:52:56;;;;;;;10.35;5.10;;;19.00;66.30;;;;;;5058579;28;20530;-82
2021/06/03 00:55:23;;;;;;;9.07;5.80;;;19.00;66.40;;;;;;5058871;28;20165;-82
2021/06/03 00:57:48;;;;;;;10.48;6.55;;;19.00;66.70;;;;;;5058045;28;20176;-86
2021/06/03 01:00:16;;;;;;;10.67;5.40;;;18.90;67.60;;;;;;5056969;28;20181;-86
2021/06/03 01:02:43;;;;;;;10.60;5.22;;;18.80;67.70;;;;;;5057234;28;20488;-85
2021/06/03 01:05:18;;;;;;;12.88;6.03;;;18.70;68.40;;;;;;5057224;28;20185;-86
2021/06/03 01:07:43;;;;;;;11.25;6.80;;;18.60;68.40;;;;;;5057424;28;20202;-85
2021/06/03 01:10:25;;;;;;;8.17;5.40;;;18.60;68.30;;;;;;5056930;28;20266;-86
2021/06/03 01:13:09;;;;;;;10.32;4.95;;;18.60;68.00;;;;;;5056669;28;20423;-86
2021/06/03 01:15:38;;;;;;;12.63;5.07;;;18.60;68.50;;;;;;5057172;28;20643;-86
2021/06/03 01:18:05;;;;;;;14.38;5.32;;;18.40;68.90;;;;;;5057606;28;20181;-85
2021/06/03 01:20:33;;;;;;;10.55;5.03;;;18.30;69.40;;;;;;5057612;28;20177;-85
2021/06/03 01:23:39;;;;;;;7.25;5.55;;;18.20;69.50;;;;;;5057394;28;20177;-86
2021/06/03 01:26:06;;;;;;;12.10;5.22;;;18.10;70.60;;;;;;5041102;28;20217;-85
2021/06/03 01:28:34;;;;;;;9.13;5.53;;;18.00;70.60;;;;;;5057683;28;20177;-86
2021/06/03 01:31:00;;;;;;;8.70;5.25;;;18.00;70.90;;;;;;5057878;28;20240;-85
2021/06/03 01:33:29;;;;;;;10.30;4.88;;;18.00;70.90;;;;;;5057171;28;20204;-85
2021/06/03 01:35:58;;;;;;;7.90;5.32;;;18.00;71.00;;;;;;5058007;28;20653;-86
2021/06/03 01:38:30;;;;;;;12.55;5.32;;;18.00;71.20;;;;;;5056906;28;20514;-85
2021/06/03 01:40:59;;;;;;;10.43;5.03;;;18.00;71.60;;;;;;5060021;28;20222;-85
2021/06/03 01:43:26;;;;;;;9.90;5.65;;;17.90;71.90;;;;;;5060421;28;20177;-85
2021/06/03 01:45:54;;;;;;;9.88;5.30;;;17.90;72.00;;;;;;5060675;28;20184;-85
2021/06/03 01:48:21;;;;;;;10.65;5.00;;;17.80;72.60;;;;;;5060070;28;20636;-85
2021/06/03 01:50:52;;;;;;;11.00;5.13;;;17.80;73.10;;;;;;5058236;28;20211;-85
2021/06/03 01:53:21;;;;;;;8.75;5.55;;;17.70;73.40;;;;;;5059682;28;20173;-85
2021/06/03 01:55:47;;;;;;;10.13;5.32;;;17.70;73.70;;;;;;5059406;28;20244;-85
2021/06/03 01:58:13;;;;;;;9.38;5.97;;;17.60;73.90;;;;;;5059985;28;20196;-85
2021/06/03 02:00:40;;;;;;;8.60;4.90;;;17.60;74.50;;;;;;5059705;28;20177;-85
2021/06/03 02:03:06;;;;;;;7.43;5.45;;;17.60;74.60;;;;;;5060269;28;20272;-85
2021/06/03 02:05:32;;;;;;;9.00;5.80;;;17.50;74.90;;;;;;5059921;28;20213;-85
2021/06/03 02:07:59;;;;;;;9.73;5.80;;;17.50;75.20;;;;;;5059693;28;20407;-85
2021/06/03 02:10:25;;;;;;;8.90;5.68;;;17.50;75.20;;;;;;5061072;28;20224;-85
2021/06/03 02:13:11;;;;;;;11.30;6.03;;;17.50;75.10;;;;;;5060960;28;20189;-83
2021/06/03 02:15:46;;;;;;;10.27;5.72;;;17.50;75.20;;;;;;5060704;28;20782;-85
2021/06/03 02:18:13;;;;;;;13.45;6.43;;;17.50;75.60;;;;;;5060286;28;20184;-85
2021/06/03 02:20:42;;;;;;;10.30;5.80;;;17.50;75.60;;;;;;5059486;28;20169;-85
2021/06/03 02:23:10;;;;;;;13.48;6.47;;;17.50;76.00;;;;;;5058996;28;20177;-85
2021/06/03 02:25:36;;;;;;;8.88;6.13;;;17.40;76.00;;;;;;5059219;28;20268;-85
2021/06/03 02:28:04;;;;;;;8.90;5.88;;;17.40;75.90;;;;;;5059100;28;20534;-85
2021/06/03 02:30:32;;;;;;;12.90;5.93;;;17.40;76.20;;;;;;5059139;28;20292;-85
2021/06/03 02:32:59;;;;;;;14.38;6.35;;;17.40;76.40;;;;;;5059379;28;20166;-85
2021/06/03 02:35:26;;;;;;;11.38;6.28;;;17.40;76.90;;;;;;5059302;28;20173;-85
2021/06/03 02:37:52;;;;;;;10.38;6.13;;;17.30;77.30;;;;;;5058843;28;20165;-85
2021/06/03 02:40:21;;;;;;;11.27;6.57;;;17.30;77.40;;;;;;5058362;28;20196;-85
2021/06/03 02:42:48;;;;;;;10.40;6.10;;;17.30;77.80;;;;;;5058280;28;20197;-85
2021/06/03 02:45:23;;;;;;;8.93;6.47;;;17.30;77.80;;;;;;5058271;28;20223;-85
2021/06/03 02:47:49;;;;;;;11.02;6.65;;;17.30;78.00;;;;;;5058534;28;20168;-85
2021/06/03 02:50:16;;;;;;;11.98;5.90;;;17.30;78.00;;;;;;5057850;28;20227;-85
2021/06/03 02:52:43;;;;;;;10.50;6.53;;;17.40;78.10;;;;;;5057464;28;20189;-85
2021/06/03 02:55:13;;;;;;;8.50;5.85;;;17.40;78.00;;;;;;5057216;28;20220;-85
2021/06/03 02:57:39;;;;;;;10.50;5.75;;;17.40;78.10;;;;;;5057212;28;20173;-85
2021/06/03 03:00:11;;;;;;;10.15;6.45;;;17.30;78.30;;;;;;5057398;28;20637;-85
2021/06/03 03:02:37;;;;;;;13.30;6.80;;;17.40;78.50;;;;;;5057593;28;20226;-85
2021/06/03 03:05:04;;;;;;;11.37;6.20;;;17.40;78.40;;;;;;5057931;28;20176;-85
2021/06/03 03:07:32;;;;;;;9.38;5.75;;;17.30;78.90;;;;;;5056899;28;20446;-85
2021/06/03 03:09:58;;;;;;;9.48;5.78;;;17.30;79.20;;;;;;5056296;28;20197;-85
2021/06/03 03:12:24;;;;;;;10.68;7.55;;;17.40;79.10;;;;;;5056960;28;20199;-85
2021/06/03 03:14:49;;;;;;;8.67;6.03;;;17.40;78.80;;;;;;5057040;28;20435;-85
2021/06/03 03:17:15;;;;;;;15.03;6.30;;;17.40;78.90;;;;;;5056764;28;20535;-85
2021/06/03 03:19:41;;;;;;;15.53;7.90;;;17.40;79.10;;;;;;5057600;28;20438;-82
2021/06/03 03:22:07;;;;;;;14.03;6.07;;;17.30;78.90;;;;;;5057296;28;20541;-79
2021/06/03 03:24:33;;;;;;;8.90;6.10;;;17.30;79.10;;;;;;5057947;28;20169;-81
2021/06/03 03:26:59;;;;;;;11.70;6.20;;;17.40;79.10;;;;;;5057551;28;20407;-81
2021/06/03 03:29:24;;;;;;;8.73;6.50;;;17.40;78.90;;;;;;5057077;28;20493;-79
2021/06/03 03:31:50;;;;;;;8.70;5.93;;;17.40;79.20;;;;;;5056907;28;20880;-81
2021/06/03 03:34:16;;;;;;;11.27;5.40;;;17.40;79.20;;;;;;5056709;28;20165;-81
2021/06/03 03:36:42;;;;;;;7.40;4.67;;;17.40;79.20;;;;;;5056070;28;20174;-81
2021/06/03 03:39:08;;;;;;;10.63;6.10;;;17.40;79.10;;;;;;5055474;28;20165;-81
2021/06/03 03:41:34;;;;;;;9.02;5.80;;;17.50;78.90;;;;;;5056280;28;20446;-80
2021/06/03 03:44:00;;;;;;;13.30;6.75;;;17.60;78.80;;;;;;5056352;28;20208;-81
2021/06/03 03:46:26;;;;;;;16.73;6.70;;;17.50;78.80;;;;;;5056759;28;20546;-81
2021/06/03 03:48:52;;;;;;;8.60;5.80;;;17.50;79.10;;;;;;5056743;28;20916;-80
2021/06/03 03:51:17;;;;;;;10.00;5.60;;;17.50;79.40;;;;;;5056938;28;20229;-80
2021/06/03 03:53:44;;;;;;;10.77;6.07;;;17.50;79.50;;;;;;5055619;28;20417;-79
2021/06/03 03:56:11;;;;;;;13.35;6.70;;;17.50;79.60;;;;;;5056212;28;20201;-81
2021/06/03 03:58:39;;;;;;;14.35;6.00;;;17.50;79.50;;;;;;5055882;28;20177;-80
2021/06/03 04:01:06;;;;;;;11.50;6.07;;;17.50;79.80;;;;;;5056543;28;20284;-80
2021/06/03 04:03:32;;;;;;;13.52;6.82;;;17.60;79.80;;;;;;5055662;28;20184;-81
2021/06/03 04:05:57;;;;;;;15.60;6.88;;;17.60;79.80;;;;;;5055604;28;20185;-80
2021/06/03 04:08:24;;;;;;;13.23;6.77;;;17.50;80.10;;;;;;5054894;28;20222;-82
2021/06/03 04:10:50;;;;;;;10.32;7.45;;;17.50;80.20;;;;;;5055068;28;20458;-82
2021/06/03 04:13:16;;;;;;;14.00;7.40;;;17.40;80.50;;;;;;5056051;28;20177;-80
2021/06/03 04:15:42;;;;;;;12.55;7.10;;;17.40;80.80;;;;;;5056302;28;20443;-80
2021/06/03 04:18:08;;;;;;;9.50;6.70;;;17.50;80.80;;;;;;5056928;28;20196;-81
2021/06/03 04:20:34;;;;;;;9.97;6.20;;;17.50;80.90;;;;;;5056288;28;20169;-81
2021/06/03 04:23:01;;;;;;;11.55;5.53;;;17.50;81.40;;;;;;5056597;28;20511;-81
2021/06/03 04:25:27;;;;;;;12.75;5.20;;;17.50;81.00;;;;;;5059255;28;20202;-82
2021/06/03 04:27:53;;;;;;;11.82;6.43;;;17.60;81.20;;;;;;5058248;28;20267;-81
2021/06/03 04:30:22;;;;;;;11.23;5.82;;;17.60;81.00;;;;;;5057041;28;20188;-82
2021/06/03 04:32:48;;;;;;;13.00;7.00;;;17.70;81.20;;;;;;5057398;28;20569;-81
2021/06/03 04:35:17;;;;;;;11.35;6.13;;;17.80;80.90;;;;;;5056778;28;20161;-81
2021/06/03 04:37:44;;;;;;;8.55;5.97;;;17.80;80.80;;;;;;5057317;28;20173;-83
2021/06/03 04:40:12;;;;;;;8.35;5.50;;;17.90;80.80;;;;;;5056386;28;20169;-83
2021/06/03 04:42:38;;;;;;;8.98;5.60;;;17.90;80.30;;;;;;5057597;28;20201;-83
2021/06/03 04:45:06;;;;;;;21.75;6.30;;;18.00;80.60;;;;;;5058053;28;20520;-82
2021/06/03 04:47:32;;;;;;;11.55;6.55;;;18.00;79.60;;;;;;5057371;28;20648;-83
2021/06/03 04:49:58;;;;;;;8.80;5.70;;;18.10;80.20;;;;;;5055577;28;20205;-81
2021/06/03 04:52:25;;;;;;;7.43;5.70;;;18.10;79.80;;;;;;5054834;28;20200;-81
2021/06/03 04:54:54;;;;;;;10.50;6.05;;;18.10;80.20;;;;;;5056003;28;20411;-82
2021/06/03 04:57:25;;;;;;;9.88;6.13;;;18.10;80.10;;;;;;5055411;28;20242;-82
2021/06/03 04:59:51;;;;;;;9.70;5.70;;;18.10;79.80;;;;;;5055439;28;20201;-82
2021/06/03 05:02:19;;;;;;;13.20;7.28;;;18.10;79.80;;;;;;5055005;28;20193;-81
2021/06/03 05:04:45;;;;;;;8.98;6.07;;;18.20;79.50;;;;;;5055223;28;20208;-81
2021/06/03 05:07:11;;;;;;;12.13;6.70;;;18.20;79.60;;;;;;5055606;28;20169;-81
2021/06/03 05:09:40;;;;;;;9.17;6.57;;;18.20;79.60;;;;;;5056005;28;20477;-81
2021/06/03 05:12:07;;;;;;;12.55;6.75;;;18.30;79.50;;;;;;5055525;28;20292;-81
2021/06/03 05:14:34;;;;;;;11.75;7.40;;;18.30;79.40;;;;;;5055422;28;20173;-81
2021/06/03 05:17:00;;;;;;;10.48;6.53;;;18.30;79.60;;;;;;5055687;28;20187;-82
2021/06/03 05:19:26;;;;;;;9.80;6.30;;;18.30;79.80;;;;;;5055635;28;20207;-81
2021/06/03 05:21:52;;;;;;;10.07;5.75;;;18.40;79.60;;;;;;5056013;28;20193;-81
2021/06/03 05:24:19;;;;;;;10.13;5.45;;;18.40;79.40;;;;;;5057501;28;20173;-81
2021/06/03 05:26:46;;;;;;;8.40;5.32;;;18.40;79.10;;;;;;5059688;28;20174;-82
2021/06/03 05:29:15;;;;;;;15.25;6.65;;;18.40;79.50;;;;;;5058939;28;20173;-82
2021/06/03 05:31:44;;;;;;;9.25;5.97;;;18.30;80.80;;;;;;5059124;28;20208;-82
2021/06/03 05:34:13;;;;;;;11.20;6.13;;;18.30;80.90;;;;;;5058841;28;20521;-82
2021/06/03 05:36:39;;;;;;;10.27;5.93;;;18.30;80.30;;;;;;5059241;28;20786;-82
2021/06/03 05:39:07;;;;;;;7.78;5.72;;;18.30;80.90;;;;;;5058717;28;20622;-82
2021/06/03 05:41:36;;;;;;;8.85;4.82;;;18.30;81.20;;;;;;5058626;28;20216;-82
2021/06/03 05:44:02;;;;;;;6.97;5.05;;;18.40;80.20;;;;;;5057306;28;20227;-86
2021/06/03 05:46:28;;;;;;;10.55;6.10;;;18.50;79.60;;;;;;5056531;28;20173;-86
2021/06/03 05:48:54;;;;;;;10.37;6.03;;;18.50;79.10;;;;;;5056198;28;20523;-85
2021/06/03 05:51:20;;;;;;;9.90;5.82;;;18.60;79.10;;;;;;5056056;28;20773;-85
2021/06/03 05:53:46;;;;;;;10.00;5.40;;;18.70;79.10;;;;;;5056274;28;20165;-86
2021/06/03 05:56:12;;;;;;;17.67;6.43;;;18.80;79.50;;;;;;5056001;28;20182;-87
2021/06/03 05:58:38;;;;;;;8.60;5.70;;;18.90;78.30;;;;;;5056238;28;20207;-86
2021/06/03 06:01:04;;;;;;;12.32;6.75;;;19.10;77.30;;;;;;5055564;28;20458;-85
2021/06/03 06:06:28;;;;;;;11.50;5.88;;;19.30;75.90;;;;;;5037501;28;20527;-85
2021/06/03 06:08:58;;;;;;;14.45;6.90;;;19.60;75.30;;;;;;5056572;28;20169;-85
2021/06/03 06:11:27;;;;;;;16.23;7.03;;;19.70;74.80;;;;;;5056077;28;20791;-85
2021/06/03 06:13:53;;;;;;;10.63;6.38;;;19.80;73.70;;;;;;5056709;28;20231;-85
2021/06/03 06:16:19;;;;;;;12.93;7.03;;;20.00;74.40;;;;;;5056034;28;20198;-86
2021/06/03 06:18:45;;;;;;;11.07;6.85;;;20.00;73.90;;;;;;5055838;28;20189;-86
2021/06/03 06:21:15;;;;;;;9.35;5.80;;;20.10;73.70;;;;;;5055746;28;20201;-86
2021/06/03 06:23:45;;;;;;;13.60;7.80;;;20.20;74.20;;;;;;5055764;28;20196;-86
2021/06/03 06:26:11;;;;;;;13.05;6.38;;;20.20;73.00;;;;;;5056435;28;20173;-86
2021/06/03 06:28:37;;;;;;;13.35;7.15;;;20.10;73.40;;;;;;5055604;28;20220;-86
2021/06/03 06:31:05;;;;;;;12.30;6.40;;;20.10;74.20;;;;;;5055282;28;20695;-87
2021/06/03 06:33:32;;;;;;;7.70;6.00;;;20.10;74.50;;;;;;5055578;28;20319;-87
2021/06/03 06:35:58;;;;;;;9.15;6.40;;;20.00;74.10;;;;;;5055889;28;20169;-86
2021/06/03 06:38:24;;;;;;;13.85;6.20;;;19.90;74.60;;;;;;5056394;28;20223;-87
2021/06/03 06:40:51;;;;;;;9.32;6.47;;;19.80;75.20;;;;;;5055320;28;20177;-85
2021/06/03 06:43:18;;;;;;;9.07;6.47;;;19.70;75.60;;;;;;5056440;28;20652;-86
2021/06/03 06:45:45;;;;;;;15.40;5.70;;;19.80;76.20;;;;;;5055771;28;20230;-86
2021/06/03 06:48:12;;;;;;;8.90;5.38;;;19.90;75.80;;;;;;5055796;28;20169;-86
2021/06/03 06:50:39;;;;;;;9.55;6.78;;;19.90;75.60;;;;;;5055892;28;20232;-86
2021/06/03 06:53:12;;;;;;;9.85;6.63;;;19.90;75.20;;;;;;5056932;28;20187;-86
2021/06/03 06:55:39;;;;;;;8.93;5.97;;;19.90;75.20;;;;;;5058845;28;20632;-86
2021/06/03 06:58:05;;;;;;;10.27;6.40;;;19.90;75.30;;;;;;5062173;28;20169;-85
2021/06/03 07:00:36;;;;;;;12.65;6.40;;;19.90;75.50;;;;;;5060229;28;20186;-85
2021/06/03 07:03:03;;;;;;;8.52;6.95;;;19.90;75.90;;;;;;5058557;28;20218;-85
2021/06/03 07:05:29;;;;;;;10.77;5.40;;;19.90;75.80;;;;;;5059191;28;20177;-86
2021/06/03 07:07:55;;;;;;;10.98;5.88;;;20.00;76.00;;;;;;5059359;28;20180;-85
2021/06/03 07:10:22;;;;;;;11.87;6.43;;;20.10;76.00;;;;;;5057818;28;20672;-86
2021/06/03 07:12:51;;;;;;;9.77;6.00;;;20.10;76.00;;;;;;5060789;28;20939;-86
2021/06/03 07:15:19;;;;;;;11.77;6.07;;;20.00;76.30;;;;;;5058977;28;20582;-85
2021/06/03 07:17:45;;;;;;;9.20;6.43;;;20.10;76.70;;;;;;5057935;28;20668;-84
2021/06/03 07:20:15;;;;;;;10.80;6.90;;;20.10;75.80;;;;;;5057094;28;20177;-85
2021/06/03 07:22:44;;;;;;;13.48;6.60;;;20.10;75.80;;;;;;5056963;28;20196;-85
2021/06/03 07:25:11;;;;;;;13.60;5.75;;;20.10;75.60;;;;;;5057122;28;20180;-85
2021/06/03 07:27:38;;;;;;;9.80;6.03;;;20.10;76.00;;;;;;5057350;28;20173;-85
2021/06/03 07:30:08;;;;;;;17.75;6.00;;;20.20;75.60;;;;;;5056781;28;20200;-85
2021/06/03 07:32:34;;;;;;;9.50;6.57;;;20.20;75.50;;;;;;5056759;28;20220;-86
2021/06/03 07:35:00;;;;;;;9.97;5.87;;;20.30;75.50;;;;;;5056707;28;20173;-86
2021/06/03 07:37:28;;;;;;;8.32;5.78;;;20.40;75.20;;;;;;5055897;28;20412;-85
2021/06/03 07:39:55;;;;;;;9.40;5.72;;;20.50;75.50;;;;;;5056501;28;20169;-86
2021/06/03 07:42:21;;;;;;;9.45;6.22;;;20.60;75.30;;;;;;5057249;28;20213;-86
2021/06/03 07:44:46;;;;;;;10.30;6.17;;;20.80;75.10;;;;;;5056558;28;20543;-85
2021/06/03 07:47:13;;;;;;;11.67;5.77;;;20.90;74.10;;;;;;5055365;28;20431;-86
2021/06/03 07:49:39;;;;;;;15.10;7.55;;;21.00;73.80;;;;;;5055669;28;20169;-86
2021/06/03 07:52:05;;;;;;;10.83;6.17;;;21.10;73.00;;;;;;5055463;28;20211;-85
2021/06/03 07:54:32;;;;;;;8.48;5.85;;;21.10;73.40;;;;;;5057193;28;20195;-82
2021/06/03 07:56:58;;;;;;;14.20;6.60;;;21.10;74.20;;;;;;5056876;28;20181;-85
2021/06/03 07:59:25;;;;;;;11.18;7.07;;;21.10;74.40;;;;;;5054308;28;20517;-86
2021/06/03 08:01:51;;;;;;;11.90;6.68;;;21.10;73.90;;;;;;5054376;28;20200;-86
2021/06/03 08:04:19;;;;;;;16.58;6.70;;;21.20;73.50;;;;;;5053051;28;20226;-85
2021/06/03 08:06:45;;;;;;;10.20;6.30;;;21.30;73.30;;;;;;5053394;28;20173;-85
2021/06/03 08:09:11;;;;;;;12.00;7.23;;;21.50;74.80;;;;;;5053315;28;20711;-85
2021/06/03 08:11:37;;;;;;;14.80;7.03;;;21.90;73.00;;;;;;5053830;28;20542;-85
2021/06/03 08:14:03;;;;;;;10.70;6.90;;;22.20;70.20;;;;;;5054499;28;20399;-82
2021/06/03 08:16:29;;;;;;;12.10;5.80;;;22.40;70.10;;;;;;5038081;28;20412;-82
2021/06/03 08:18:56;;;;;;;11.50;6.40;;;22.50;70.30;;;;;;5038027;28;20213;-83
2021/06/03 08:21:22;;;;;;;11.05;6.20;;;22.60;70.30;;;;;;5037148;28;20984;-82
2021/06/03 08:23:48;;;;;;;9.82;6.03;;;22.70;69.60;;;;;;5037624;28;20178;-82
2021/06/03 08:26:14;;;;;;;7.85;5.60;;;22.80;70.80;;;;;;5037875;28;20243;-82
2021/06/03 08:28:40;;;;;;;17.02;6.65;;;22.90;69.40;;;;;;5037728;28;20169;-82
2021/06/03 08:31:06;;;;;;;7.10;4.97;;;23.10;68.80;;;;;;5038919;28;20219;-82
2021/06/03 08:33:32;;;;;;;8.23;6.30;;;23.20;69.20;;;;;;5045586;28;20216;-82
2021/06/03 08:35:58;;;;;;;11.20;6.43;;;23.30;68.10;;;;;;5050627;28;20419;-82
2021/06/03 08:38:24;;;;;;;9.83;6.20;;;23.30;68.00;;;;;;5053784;28;20174;-85
2021/06/03 08:40:53;;;;;;;8.55;5.30;;;23.40;67.00;;;;;;5039887;28;20423;-84
2021/06/03 08:43:22;;;;;;;7.35;5.53;;;23.40;69.20;;;;;;5055638;28;20173;-85
2021/06/03 08:45:48;;;;;;;10.13;5.30;;;23.60;67.80;;;;;;5057158;28;20180;-84
2021/06/03 08:48:16;;;;;;;9.93;6.05;;;23.70;68.30;;;;;;5057057;28;20237;-85
2021/06/03 08:50:48;;;;;;;13.40;6.32;;;23.90;68.00;;;;;;5054371;28;20562;-84
2021/06/03 08:53:15;;;;;;;6.90;5.13;;;24.00;67.60;;;;;;5054627;28;20161;-84
2021/06/03 08:58:27;;;;;;;8.60;5.47;;;24.10;68.10;;;;;;5056511;28;20202;-83
2021/06/03 09:00:56;;;;;;;9.35;5.45;;;24.10;67.00;;;;;;5057378;28;20553;-83
2021/06/03 09:03:24;;;;;;;12.95;4.90;;;24.20;67.80;;;;;;5058641;28;20264;-84
2021/06/03 09:05:50;;;;;;;9.07;5.80;;;24.30;68.00;;;;;;5058714;28;20652;-85
2021/06/03 09:08:24;;;;;;;8.23;5.10;;;24.40;68.00;;;;;;5058391;28;20177;-85
2021/06/03 09:10:56;;;;;;;8.60;4.78;;;24.50;67.30;;;;;;5057165;28;20291;-87
2021/06/03 09:13:27;;;;;;;13.95;6.18;;;24.70;67.30;;;;;;5057329;28;20165;-85
2021/06/03 09:15:58;;;;;;;6.88;4.80;;;25.00;67.70;;;;;;5057829;28;20180;-86
2021/06/03 09:18:35;;;;;;;5.75;3.80;;;25.30;66.40;;;;;;5127253;23;20315;-87
2021/06/03 09:21:10;;;;;;;9.18;4.10;;;25.80;63.50;;;;;;5074580;28;20212;-85
2021/06/03 09:23:39;;;;;;;5.80;4.20;;;26.10;61.20;;;;;;5097149;28;20172;-83
2021/06/03 09:26:16;;;;;;;6.18;4.70;;;26.50;61.00;;;;;;5075996;28;20187;-84
2021/06/03 09:28:47;;;;;;;5.50;3.90;;;26.80;59.80;;;;;;5075186;28;20531;-84
2021/06/03 09:31:17;;;;;;;6.90;4.50;;;27.20;59.10;;;;;;5091741;28;20291;-86
2021/06/03 09:33:53;;;;;;;4.80;3.40;;;27.50;57.10;;;;;;5092216;28;20747;-84
2021/06/03 09:36:40;;;;;;;8.13;3.78;;;27.70;56.20;;;;;;5075194;28;20176;-83
2021/06/03 09:39:16;;;;;;;5.90;3.55;;;27.80;58.80;;;;;;5076214;28;20208;-82
2021/06/03 09:41:47;;;;;;;7.57;3.92;;;28.00;55.70;;;;;;5075167;28;20245;-84
2021/06/03 09:44:17;;;;;;;5.25;3.95;;;28.30;55.10;;;;;;5074502;28;20168;-85
2021/06/03 09:46:49;;;;;;;5.25;3.65;;;28.60;55.70;;;;;;5074927;28;20173;-86
2021/06/03 09:49:18;;;;;;;7.60;3.28;;;29.00;52.60;;;;;;5075091;28;20173;-84
2021/06/03 09:51:46;;;;;;;6.00;3.00;;;29.10;52.10;;;;;;5075344;28;20359;-83
2021/06/03 09:54:15;;;;;;;5.78;3.72;;;29.20;52.50;;;;;;5074329;28;20164;-84
2021/06/03 09:56:46;;;;;;;7.82;3.50;;;29.40;52.50;;;;;;5074522;28;20168;-84
2021/06/03 09:59:21;;;;;;;6.80;3.60;;;29.40;50.80;;;;;;5074727;28;20809;-83
2021/06/03 10:01:58;;;;;;;5.35;3.30;;;29.30;50.50;;;;;;5074285;28;20192;-83
2021/06/03 10:04:37;;;;;;;6.55;3.35;;;29.50;51.50;;;;;;5074603;28;20172;-83
2021/06/03 10:07:03;;;;;;;4.85;3.97;;;29.60;51.70;;;;;;5074295;28;20207;-83
2021/06/03 10:09:40;;;;;;;6.47;3.58;;;29.80;50.00;;;;;;5091579;28;20172;-84
2021/06/03 10:12:11;;;;;;;10.02;3.45;;;30.00;49.50;;;;;;5073061;28;20258;-83
2021/06/03 10:14:38;;;;;;;5.10;3.15;;;30.20;48.20;;;;;;5090911;28;20173;-84
2021/06/03 10:17:17;;;;;;;3.58;2.92;;;30.20;48.80;;;;;;5090889;28;20176;-84
2021/06/03 10:19:47;;;;;;;4.20;2.90;;;30.30;48.30;;;;;;5073860;28;20191;-84
2021/06/03 10:22:20;;;;;;;4.80;3.15;;;30.30;50.00;;;;;;5073993;28;20203;-84
2021/06/03 10:24:48;;;;;;;4.13;2.90;;;30.20;48.40;;;;;;5091282;28;20172;-83
2021/06/03 10:27:18;;;;;;;3.30;2.72;;;30.00;48.70;;;;;;5091025;28;20175;-83
2021/06/03 10:29:48;;;;;;;4.50;2.95;;;30.30;50.50;;;;;;5073817;28;20176;-84
2021/06/03 10:32:16;;;;;;;4.80;3.38;;;30.60;47.90;;;;;;5073786;28;20214;-84
2021/06/03 10:34:45;;;;;;;5.72;3.03;;;30.70;47.00;;;;;;5073619;28;20172;-84
2021/06/03 10:37:15;;;;;;;6.47;3.25;;;30.40;48.40;;;;;;5073807;28;20192;-84
2021/06/03 10:39:43;;;;;;;5.30;3.22;;;30.00;47.80;;;;;;5073792;28;20207;-85
2021/06/03 10:42:12;;;;;;;4.88;2.88;;;29.60;49.40;;;;;;5073776;28;20607;-86
2021/06/03 10:44:44;;;;;;;3.88;2.92;;;29.60;50.00;;;;;;5074140;28;20267;-86
2021/06/03 10:47:11;;;;;;;5.68;2.88;;;29.70;48.60;;;;;;5073480;28;20259;-85
2021/06/03 10:49:38;;;;;;;15.95;7.05;;;29.60;49.20;;;;;;5090645;28;20176;-85
2021/06/03 10:52:07;;;;;;;8.43;3.63;;;29.50;49.80;;;;;;5073783;28;20204;-85
2021/06/03 10:54:44;;;;;;;13.63;5.30;;;29.60;49.80;;;;;;5073515;28;20165;-85
2021/06/03 10:57:13;;;;;;;9.45;4.38;;;29.90;50.50;;;;;;5090502;28;20171;-87
2021/06/03 10:59:41;;;;;;;9.93;4.97;;;30.20;50.00;;;;;;5073702;28;20698;-85
2021/06/03 11:02:14;;;;;;;6.10;2.60;;;30.30;49.50;;;;;;5073438;28;20208;-85
2021/06/03 11:04:44;;;;;;;4.90;3.58;;;30.40;47.10;;;;;;5090392;28;20169;-84
2021/06/03 11:07:33;;;;;;;5.63;2.90;;;30.50;48.70;;;;;;5073606;28;20180;-90
2021/06/03 11:10:27;;;;;;;4.90;3.00;;;30.40;45.80;;;;;;5073527;28;20651;-84
2021/06/03 11:13:17;;;;;;;4.63;3.30;;;30.20;47.00;;;;;;5072842;28;20283;-83
2021/06/03 11:16:02;;;;;;;6.63;2.03;;;30.40;46.10;;;;;;5074114;28;20647;-83
2021/06/03 11:18:46;;;;;;;4.72;3.05;;;30.90;46.50;;;;;;5090341;28;20184;-84
2021/06/03 11:24:15;;;;;;;3.67;2.25;;;31.40;44.40;;;;;;5074568;28;20169;-84
2021/06/03 11:26:44;;;;;;;5.35;2.60;;;31.10;45.30;;;;;;5090072;28;20279;-84
2021/06/03 11:29:19;;;;;;;3.78;2.55;;;30.70;45.40;;;;;;5089906;28;20172;-88
2021/06/03 11:32:07;;;;;;;5.22;2.60;;;30.50;47.80;;;;;;5089592;28;20211;-88
2021/06/03 11:34:48;;;;;;;4.53;2.75;;;30.80;44.90;;;;;;5090234;28;20307;-84
2021/06/03 11:37:44;;;;;;;3.95;2.83;;;31.10;45.20;;;;;;5072869;28;20176;-84
2021/06/03 11:40:19;;;;;;;4.05;2.75;;;31.30;45.40;;;;;;5072997;28;20176;-84
2021/06/03 11:42:50;;;;;;;4.60;3.10;;;31.20;46.50;;;;;;5072182;28;20556;-83
2021/06/03 11:45:40;;;;;;;5.85;2.63;;;31.10;44.60;;;;;;5090004;28;20639;-84
2021/06/03 11:48:13;;;;;;;4.75;2.30;;;31.10;46.00;;;;;;5072184;28;20313;-85
2021/06/03 11:50:45;;;;;;;8.90;3.22;;;31.50;43.60;;;;;;5089178;28;20207;-82
2021/06/03 11:53:26;;;;;;;2.83;2.30;;;31.60;44.60;;;;;;5074292;28;20180;-83
2021/06/03 11:56:09;;;;;;;3.42;2.60;;;32.00;44.50;;;;;;5073338;28;20232;-82
2021/06/03 11:58:43;;;;;;;3.55;2.50;;;32.00;44.80;;;;;;5073109;28;20195;-82
2021/06/03 12:01:18;;;;;;;3.92;2.60;;;31.50;45.40;;;;;;5090949;28;20282;-82
2021/06/03 12:03:46;;;;;;;13.90;2.85;;;30.90;46.70;;;;;;5090675;28;20171;-82
2021/06/03 12:06:30;;;;;;;6.70;3.50;;;30.50;46.30;;;;;;5073842;28;20249;-84
2021/06/03 12:08:59;;;;;;;6.93;2.80;;;30.10;47.80;;;;;;5089268;28;20176;-85
2021/06/03 12:11:39;;;;;;;9.27;2.88;;;30.00;49.00;;;;;;5071843;28;20204;-85
2021/06/03 12:14:15;;;;;;;4.13;2.80;;;29.80;49.40;;;;;;5088812;28;20177;-86
2021/06/03 12:16:48;;;;;;;5.90;2.80;;;29.50;51.30;;;;;;5072405;28;20184;-85
2021/06/03 12:19:23;;;;;;;3.83;3.00;;;29.20;51.20;;;;;;5072515;28;20188;-84
2021/06/03 12:22:00;;;;;;;4.07;3.03;;;28.70;53.20;;;;;;5071799;28;20196;-84
2021/06/03 12:24:43;;;;;;;6.05;3.40;;;28.10;55.30;;;;;;5072041;28;20254;-83
2021/06/03 12:27:22;;;;;;;8.55;3.95;;;27.90;57.20;;;;;;5072552;28;20172;-85
2021/06/03 12:29:49;;;;;;;5.32;3.45;;;27.50;57.90;;;;;;5072015;28;20203;-86
2021/06/03 12:32:18;;;;;;;5.70;4.22;;;27.20;59.30;;;;;;5089029;28;20680;-83
2021/06/03 12:34:44;;;;;;;6.63;3.55;;;26.80;61.70;;;;;;5071151;28;20173;-83
2021/06/03 12:37:33;;;;;;;20.55;5.82;;;26.50;66.30;;;;;;5071524;28;20543;-84
2021/06/03 12:40:03;;;;;;;9.73;4.50;;;26.10;76.00;;;;;;5071729;28;20230;-84
2021/06/03 12:42:31;;;;;;;15.48;5.40;;;25.80;76.70;;;;;;5071319;28;20196;-84
2021/06/03 12:44:56;;;;;;;7.03;4.53;;;25.10;78.70;;;;;;5071503;28;20263;-85
2021/06/03 12:47:25;;;;;;;19.03;5.00;;;24.60;76.40;;;;;;5088744;28;20265;-86
2021/06/03 12:50:03;;;;;;;7.13;4.30;;;24.20;81.70;;;;;;5071538;28;20172;-86
2021/06/03 12:52:29;;;;;;;11.32;5.93;;;23.80;79.80;;;;;;5071744;28;20196;-86
2021/06/03 12:54:59;;;;;;;17.88;5.18;;;23.60;87.10;;;;;;5071880;28;20180;-83
2021/06/03 12:57:29;;;;;;;14.77;5.70;;;23.40;88.30;;;;;;5071696;28;20165;-83
2021/06/03 12:59:56;;;;;;;10.98;5.40;;;23.20;89.20;;;;;;5071358;28;20642;-83
2021/06/03 13:02:29;;;;;;;14.13;5.65;;;22.90;90.30;;;;;;5071976;28;20611;-83